Latest Weather Observations for Devonport Airport

IDT60801

Issued at 9:31 am EST Thursday 28 May 2015 (issued every 30 minutes, with the page automatically refreshed every 10 minutes)

About weather observations | Map of weather stations | Latest weather observations for TAS | Other Formats
Station Details ID: 091126 Name: DEVONPORT AIRPORT Lat: -41.17 Lon: 146.43 Height: 8.0 m
Data from the previous 72 hours. | See also: Recent months at Devonport Airport
Date/Time
EST
Temp
°C
App
Temp
°C
Dew
Point
Rel
Hum
%
Delta-T
°C
Wind Press
QNH
hPa
Press
MSL
hPa
Rain
since 9 am
mm
Dir
 
Spd
km/h
Gust
km/h
Spd
kts
Gust
kts
28/09:30am 14.4 9.7 14.4 100 0.0 NNW 32 39 17 21 1012.3 1012.4 0.0
28/09:00am 14.5 9.3 14.5 100 0.0 NNW 35 48 19 26 1012.3 1012.4 24.0
28/08:53am 14.4 10.5 14.4 100 0.0 NNW 28 46 15 25 1012.4 1012.5 24.0
28/08:52am 14.3 10.4 14.3 100 0.0 NW 28 37 15 20 1012.4 1012.5 24.0
28/08:30am 14.0 10.0 14.0 100 0.0 NW 28 39 15 21 1012.8 1012.9 24.0
28/08:00am 13.7 8.6 13.7 100 0.0 WNW 33 41 18 22 1012.8 1012.9 24.0
28/07:47am 13.6 9.8 13.6 100 0.0 NW 26 35 14 19 1012.8 1012.9 23.8
28/07:33am 12.8 10.4 12.8 100 0.0 WNW 17 24 9 13 1012.9 1013.0 23.8
28/07:30am 12.8 10.1 12.8 100 0.0 WNW 19 26 10 14 1012.8 1012.9 23.8
28/07:00am 12.7 9.0 12.7 100 0.0 WNW 24 32 13 17 1013.0 1013.1 23.8
28/06:30am 12.5 9.5 12.5 100 0.0 NW 20 26 11 14 1012.9 1013.0 23.8
28/06:27am 12.4 9.4 12.4 100 0.0 NW 20 26 11 14 1012.9 1013.0 23.8
28/06:23am 12.3 8.8 12.3 100 0.0 NW 22 30 12 16 1012.8 1012.9 23.8
28/06:19am 12.3 8.5 12.3 100 0.0 NW 24 32 13 17 1012.9 1013.0 23.8
28/05:48am 12.3 8.5 12.3 100 0.0 WNW 24 33 13 18 1012.9 1013.0 12.6
28/05:30am 13.1 12.4 13.1 100 0.0 NNE 9 20 5 11 1012.2 1012.2 11.0
28/05:07am 12.3 12.6 12.3 100 0.0 WSW 2 7 1 4 1012.6 1012.7 11.0
28/05:02am 12.6 12.3 12.6 100 0.0 W 6 11 3 6 1012.8 1012.9 11.0
28/05:00am 12.6 12.1 12.6 100 0.0 W 7 13 4 7 1012.8 1012.9 11.0
28/04:57am 12.7 11.8 12.7 100 0.0 W 9 15 5 8 1012.9 1013.0 11.0
28/04:47am 12.8 11.2 12.8 100 0.0 WNW 13 17 7 9 1013.1 1013.2 10.2
28/04:46am 12.9 11.3 12.9 100 0.0 WNW 13 17 7 9 1013.1 1013.2 9.6
28/04:30am 12.8 11.6 12.8 100 0.0 WNW 11 15 6 8 1013.2 1013.3 8.8
28/04:01am 12.9 10.6 12.9 100 0.0 WNW 17 22 9 12 1013.5 1013.6 8.8
28/04:00am 12.9 10.6 12.9 100 0.0 WNW 17 22 9 12 1013.5 1013.6 8.8
28/03:30am 12.9 10.0 12.9 100 0.0 WNW 20 26 11 14 1013.7 1013.8 8.8
28/03:24am 13.0 10.1 13.0 100 0.0 WNW 20 26 11 14 1013.7 1013.8 8.8
28/03:00am 13.3 10.2 13.3 100 0.0 WNW 22 28 12 15 1013.7 1013.8 8.8
28/02:30am 13.7 8.8 13.7 100 0.0 NW 32 43 17 23 1013.9 1014.0 8.8
28/02:13am 13.6 7.7 13.6 100 0.0 NW 37 48 20 26 1013.9 1014.0 8.6
28/02:12am 13.6 7.7 13.6 100 0.0 NW 37 48 20 26 1013.9 1014.0 8.6
28/02:02am 13.7 7.5 13.7 100 0.0 NW 39 57 21 31 1013.9 1014.0 8.6
28/02:01am 13.7 7.5 13.7 100 0.0 NW 39 57 21 31 1013.8 1013.9 8.6
28/02:00am 13.7 7.1 13.7 100 0.0 NW 41 57 22 31 1013.8 1013.9 8.6
28/01:48am 13.7 7.5 13.7 100 0.0 NNW 39 50 21 27 1013.6 1013.7 8.4
28/01:34am 13.8 8.9 13.8 100 0.0 NNW 32 43 17 23 1013.7 1013.8 8.0
28/01:30am 13.7 8.8 13.7 100 0.0 NNW 32 41 17 22 1013.8 1013.9 8.0
28/01:09am 13.5 11.0 13.5 100 0.0 NNW 19 28 10 15 1013.9 1014.0 6.6
28/01:00am 12.9 12.1 12.9 100 0.0 NW 9 11 5 6 1014.1 1014.2 5.8
28/12:30am 13.0 11.5 13.0 100 0.0 NW 13 17 7 9 1014.5 1014.6 5.8
28/12:00am 12.9 12.5 12.9 100 0.0 WNW 7 11 4 6 1014.8 1014.9 5.4
 
Date/Time
EST
Temp
°C
App
Temp
°C
Dew
Point
Rel
Hum
%
Delta-T
°C
Wind Press
QNH
hPa
Press
MSL
hPa
Rain
since 9 am
mm
Dir
 
Spd
km/h
Gust
km/h
Spd
kts
Gust
kts
27/11:56pm 12.9 12.5 12.9 100 0.0 W 7 9 4 5 1014.9 1015.0 5.4
27/11:30pm 13.0 11.1 13.0 100 0.0 WNW 15 20 8 11 1015.2 1015.3 5.4
27/11:00pm 12.9 9.3 12.9 100 0.0 NW 24 32 13 17 1015.5 1015.6 5.4
27/10:30pm 13.0 8.2 13.0 100 0.0 WNW 30 35 16 19 1015.4 1015.5 4.8
27/10:25pm 13.0 8.2 13.0 100 0.0 NW 30 35 16 19 1015.4 1015.5 4.8
27/10:19pm 12.9 8.1 12.9 100 0.0 NW 30 39 16 21 1015.3 1015.4 4.8
27/10:04pm 13.2 8.1 13.2 100 0.0 NW 32 48 17 26 1015.3 1015.4 4.6
27/10:02pm 13.6 9.0 13.6 100 0.0 NW 30 46 16 25 1015.5 1015.6 4.2
27/10:00pm 14.0 10.0 14.0 100 0.0 NNW 28 39 15 21 1015.3 1015.4 3.4
27/09:55pm 13.9 9.8 13.9 100 0.0 NNW 28 39 15 21 1015.2 1015.3 3.4
27/09:35pm 14.0 9.2 14.0 100 0.0 NNW 32 54 17 29 1015.4 1015.5 3.0
27/09:34pm 14.1 9.3 14.1 100 0.0 NNW 32 54 17 29 1015.4 1015.5 3.0
27/09:30pm 14.3 10.4 14.3 100 0.0 NNW 28 35 15 19 1015.4 1015.5 2.8
27/09:00pm 14.3 11.5 14.3 100 0.0 NNW 22 28 12 15 1015.5 1015.6 2.8
27/08:30pm 14.2 11.7 14.2 100 0.0 NNW 20 24 11 13 1015.9 1016.0 2.8
27/08:00pm 14.2 11.4 14.2 100 0.0 NNW 22 26 12 14 1016.1 1016.2 2.8
27/07:52pm 14.2 11.7 14.2 100 0.0 NNW 20 28 11 15 1016.0 1016.1 2.8
27/07:41pm 14.1 11.2 14.1 100 0.0 NNW 22 30 12 16 1015.9 1016.0 2.8
27/07:30pm 14.2 11.0 14.2 100 0.0 NNW 24 32 13 17 1016.0 1016.1 2.8
27/07:26pm 14.3 10.7 14.3 100 0.0 NNW 26 32 14 17 1016.0 1016.1 2.8
27/07:08pm 14.1 11.2 14.1 100 0.0 NNW 22 26 12 14 1015.9 1016.0 2.8
27/07:00pm 14.2 11.4 14.2 100 0.0 NNW 22 28 12 15 1016.0 1016.1 2.8
27/06:30pm 14.2 11.4 14.2 100 0.0 NNW 22 26 12 14 1015.8 1015.9 2.8
27/06:00pm 14.1 10.8 14.1 100 0.0 NNW 24 28 13 15 1015.8 1015.9 2.8
27/05:30pm 13.9 11.0 13.9 100 0.0 NNW 22 28 12 15 1015.6 1015.7 2.8
27/05:00pm 14.1 10.8 14.1 100 0.0 NNW 24 33 13 18 1015.6 1015.7 2.8
27/04:30pm 13.9 10.2 13.9 100 0.0 NNW 26 32 14 17 1015.6 1015.7 2.8
27/04:00pm 14.1 9.7 14.1 100 0.0 NNW 30 35 16 19 1015.8 1015.9 2.8
27/03:30pm 14.3 10.4 14.3 100 0.0 NNW 28 35 15 19 1015.8 1015.9 2.8
27/03:00pm 14.0 9.2 14.0 100 0.0 NNW 32 37 17 20 1016.1 1016.2 2.8
27/02:30pm 13.7 8.6 13.7 100 0.0 NNW 33 43 18 23 1016.1 1016.2 2.8
27/02:00pm 14.1 9.7 14.1 100 0.0 NW 30 39 16 21 1016.3 1016.4 2.6
27/01:41pm 14.0 10.0 14.0 100 0.0 NNW 28 35 15 19 1016.5 1016.6 2.6
27/01:30pm 14.0 10.0 14.0 100 0.0 NNW 28 35 15 19 1016.6 1016.7 2.6
27/01:05pm 13.7 9.2 13.7 100 0.0 NNW 30 35 16 19 1016.7 1016.8 2.6
27/01:00pm 13.8 9.7 13.8 100 0.0 NNW 28 33 15 18 1016.8 1016.9 2.6
27/12:30pm 13.9 9.8 13.9 100 0.0 NNW 28 33 15 18 1017.1 1017.2 2.6
27/12:00pm 13.7 9.6 13.7 100 0.0 NNW 28 32 15 17 1017.7 1017.8 2.6
27/11:53am 13.5 9.3 13.5 100 0.0 NNW 28 32 15 17 1017.7 1017.8 2.6
27/11:37am 13.3 8.6 13.3 100 0.0 N 30 37 16 20 1018.1 1018.1 2.6
27/11:30am 13.1 8.0 13.1 100 0.0 N 32 39 17 21 1018.2 1018.2 2.4
27/11:16am 13.2 9.3 13.2 100 0.0 N 26 35 14 19 1018.5 1018.5 1.6
27/11:06am 13.4 9.5 13.4 100 0.0 NNW 26 32 14 17 1018.8 1018.8 1.0
27/11:00am 13.4 9.9 13.4 100 0.0 N 24 32 13 17 1018.8 1018.8 1.0
27/10:30am 13.6 10.6 13.6 100 0.0 NNW 22 32 12 17 1019.0 1019.0 1.0
27/10:03am 13.2 10.0 13.2 100 0.0 NNW 22 30 12 16 1019.1 1019.1 0.8
27/10:00am 13.2 9.6 13.2 100 0.0 NNW 24 32 13 17 1019.1 1019.1 0.8
27/09:37am 13.4 8.8 13.4 100 0.0 NNW 30 39 16 21 1019.1 1019.1 0.4
27/09:30am 13.5 8.9 13.5 100 0.0 NNW 30 37 16 20 1019.2 1019.2 0.4
27/09:00am 14.1 9.7 14.1 100 0.0 N 30 37 16 20 1019.3 1019.3 0.0
27/08:30am 13.8 10.1 13.8 100 0.0 N 26 33 14 18 1019.6 1019.6 0.0
27/08:00am 13.7 9.9 13.7 100 0.0 N 26 32 14 17 1019.7 1019.7 0.0
27/07:30am 13.5 10.4 13.5 100 0.0 NNE 22 28 12 15 1019.8 1019.8 0.0
27/07:00am 13.0 10.1 13.0 100 0.0 NNE 20 30 11 16 1019.8 1019.8 0.0
27/06:30am 10.4 8.5 10.4 100 0.0 SE 11 15 6 8 1019.9 1019.9 0.0
27/06:00am 9.9 8.2 9.9 100 0.0 S 9 13 5 7 1020.4 1020.4 0.0
27/05:30am 9.7 7.6 9.7 100 0.0 S 11 13 6 7 1020.5 1020.5 0.0
27/05:11am 9.6 7.8 9.6 100 0.0 SSW 9 11 5 6 1020.7 1020.7 0.0
27/05:00am 9.3 7.8 9.3 100 0.0 SE 7 13 4 7 1020.8 1020.8 0.0
27/04:38am 9.1 6.1 9.1 100 0.0 SSE 15 19 8 10 1020.9 1020.9 0.0
27/04:30am 9.0 5.9 9.0 100 0.0 SSE 15 17 8 9 1021.0 1021.0 0.0
27/04:16am 8.9 5.8 8.9 100 0.0 SSE 15 17 8 9 1021.3 1021.3 0.0
27/04:00am 8.5 5.7 8.5 100 0.0 S 13 15 7 8 1021.5 1021.5 0.0
27/03:52am 8.5 6.1 8.5 100 0.0 S 11 13 6 7 1021.4 1021.4 0.0
27/03:36am 8.4 5.6 8.4 100 0.0 S 13 15 7 8 1021.7 1021.7 0.0
27/03:30am 8.3 5.4 8.3 100 0.0 S 13 15 7 8 1021.8 1021.8 0.0
27/03:02am 8.2 4.9 8.2 100 0.0 SSE 15 17 8 9 1022.2 1022.2 0.0
27/03:00am 8.2 4.9 8.2 100 0.0 SSE 15 17 8 9 1022.3 1022.3 0.0
27/02:49am 8.7 5.6 8.7 100 0.0 SSE 15 17 8 9 1022.5 1022.5 0.0
27/02:39am 9.0 5.9 9.0 100 0.0 SSE 15 17 8 9 1022.6 1022.6 0.0
27/02:30am 8.9 6.2 8.9 100 0.0 SSE 13 15 7 8 1022.7 1022.7 0.0
27/02:00am 8.6 5.8 8.6 100 0.0 S 13 15 7 8 1022.9 1022.9 0.0
27/01:46am 8.5 5.7 8.5 100 0.0 SSE 13 17 7 9 1023.0 1023.0 0.0
27/01:30am 8.6 6.2 8.6 100 0.0 SSE 11 13 6 7 1023.0 1023.0 0.0
27/01:24am 8.6 6.2 8.6 100 0.0 SSE 11 13 6 7 1023.1 1023.1 0.0
27/01:00am 8.9 6.6 8.9 100 0.0 SSE 11 13 6 7 1023.4 1023.4 0.0
27/12:50am 8.5 5.3 8.5 100 0.0 SSE 15 17 8 9 1023.4 1023.4 0.0
27/12:37am 8.4 4.8 8.4 100 0.0 SSE 17 19 9 10 1023.4 1023.4 0.0
27/12:30am 8.5 5.3 8.5 100 0.0 SSE 15 17 8 9 1023.5 1023.5 0.0
27/12:21am 8.5 5.7 8.5 100 0.0 SSE 13 17 7 9 1023.6 1023.6 0.0
27/12:00am 8.2 4.9 8.2 100 0.0 SSE 15 17 8 9 1023.7 1023.7 0.0
 
Date/Time
EST
Temp
°C
App
Temp
°C
Dew
Point
Rel
Hum
%
Delta-T
°C
Wind Press
QNH
hPa
Press
MSL
hPa
Rain
since 9 am
mm
Dir
 
Spd
km/h
Gust
km/h
Spd
kts
Gust
kts
26/11:35pm 7.7 4.3 7.7 100 0.0 S 15 17 8 9 1023.8 1023.8 0.0
26/11:32pm 7.6 4.2 7.6 100 0.0 SSE 15 17 8 9 1023.8 1023.8 0.0
26/11:30pm 7.6 4.2 7.6 100 0.0 SSE 15 19 8 10 1023.8 1023.8 0.0
26/11:25pm 7.7 4.3 7.7 100 0.0 SSE 15 19 8 10 1023.9 1023.9 0.0
26/11:02pm 7.5 4.5 7.5 100 0.0 S 13 15 7 8 1024.0 1024.0 0.0
26/11:00pm 7.4 4.3 7.4 100 0.0 S 13 15 7 8 1024.0 1024.0 0.0
26/10:30pm 7.5 4.5 7.5 100 0.0 S 13 15 7 8 1023.9 1023.9 0.0
26/10:04pm 7.4 4.7 7.4 100 0.0 S 11 13 6 7 1024.2 1024.2 0.0
26/10:00pm 7.5 4.8 7.5 100 0.0 SSE 11 13 6 7 1024.2 1024.2 0.0
26/09:51pm 7.5 4.8 7.5 100 0.0 SSE 11 13 6 7 1024.2 1024.2 0.0
26/09:30pm 7.3 6.7 7.3 100 0.0 CALM 0 0 0 0 1024.4 1024.4 0.0
26/09:00pm 7.6 7.0 7.6 100 0.0 CALM 0 6 0 3 1024.7 1024.7 0.0
26/08:30pm 7.6 6.3 7.6 100 0.0 SE 4 7 2 4 1024.8 1024.8 0.0
26/08:00pm 8.7 7.3 8.7 100 0.0 SSW 6 7 3 4 1024.9 1024.9 0.0
26/07:30pm 9.1 8.9 9.1 100 0.0 CALM 0 0 0 0 1024.9 1024.9 0.0
26/07:00pm 9.0 8.8 9.0 100 0.0 CALM 0 4 0 2 1024.9 1024.9 0.0
26/06:30pm 9.9 8.6 9.9 100 0.0 WSW 7 9 4 5 1025.0 1025.0 0.0
26/06:00pm 10.3 9.3 10.3 100 0.0 WSW 6 7 3 4 1025.0 1025.0 0.0
26/05:30pm 11.8 11.0 11.8 100 0.0 W 7 9 4 5 1024.9 1024.9 0.0
26/05:00pm 12.5 10.4 12.5 100 0.0 W 15 20 8 11 1024.8 1024.8 0.0
26/04:30pm 13.3 10.5 13.3 100 0.0 WNW 20 24 11 13 1024.9 1024.9 0.0
26/04:00pm 13.5 10.8 13.5 100 0.0 WNW 20 24 11 13 1025.1 1025.1 0.0
26/03:30pm 14.6 12.3 14.6 100 0.0 NW 20 26 11 14 1025.1 1025.1 0.0
26/03:00pm 14.4 11.6 14.4 100 0.0 NW 22 28 12 15 1025.2 1025.2 0.0
26/02:30pm 14.7 11.7 14.7 100 0.0 NW 24 30 13 16 1025.3 1025.3 0.0
26/02:00pm 15.0 12.8 15.0 100 0.0 WNW 20 28 11 15 1025.5 1025.5 0.0
26/01:30pm 14.9 12.7 14.9 100 0.0 NW 20 24 11 13 1025.8 1025.8 0.0
26/01:00pm 14.6 12.5 14.6 100 0.0 NW 19 22 10 12 1026.1 1026.1 0.0
26/12:30pm 14.5 12.7 14.5 100 0.0 WNW 17 20 9 11 1026.4 1026.4 0.0
26/12:00pm 13.8 12.2 13.8 100 0.0 WNW 15 19 8 10 1026.9 1026.9 0.0
26/11:30am 13.4 12.0 13.4 100 0.0 WNW 13 15 7 8 1027.4 1027.4 0.0
26/11:00am 12.7 11.8 12.7 100 0.0 W 9 13 5 7 1027.8 1027.8 0.0
26/10:30am 12.0 12.6 12.0 100 0.0 CALM 0 6 0 3 1028.2 1028.2 0.0
26/10:00am 10.3 9.3 10.3 100 0.0 SW 6 7 3 4 1028.0 1028.0 0.0
26/09:30am 8.6 6.6 8.6 100 0.0 WSW 9 9 5 5 1028.1 1028.1 0.0
26/09:00am 7.2 4.8 7.2 100 0.0 SSW 9 13 5 7 1028.1 1028.1 0.2
26/08:30am 6.0 3.0 6.0 100 0.0 S 11 11 6 6 1028.1 1028.1 0.2
26/08:00am 4.3 1.3 4.3 100 0.0 S 9 13 5 7 1028.2 1028.2 0.2
26/07:30am 4.0 0.2 4.0 100 0.0 S 13 17 7 9 1028.0 1028.0 0.2
26/07:00am 3.7 -0.5 3.7 100 0.0 S 15 20 8 11 1027.8 1027.8 0.2
26/06:30am 3.6 0.9 3.6 100 0.0 S 7 11 4 6 1027.6 1027.6 0.0
26/06:00am 4.5 0.8 4.5 100 0.0 S 13 17 7 9 1027.7 1027.7 0.0
26/05:30am 4.4 1.5 4.4 100 0.0 SW 9 11 5 6 1027.6 1027.6 0.0
26/05:00am 4.6 1.3 4.6 100 0.0 S 11 13 6 7 1027.8 1027.8 0.0
26/04:30am 4.1 1.5 4.1 100 0.0 S 7 9 4 5 1027.8 1027.8 0.0
26/04:00am 3.1 0.5 3.1 100 0.0 S 6 6 3 3 1027.6 1027.6 0.0
26/03:59am 3.1 0.5 3.1 100 0.0 S 6 6 3 3 1027.6 1027.6 0.0
26/03:39am 3.3 0.7 3.3 100 0.0 S 6 9 3 5 1027.6 1027.6 0.0
26/03:30am 4.5 2.0 4.5 100 0.0 S 7 9 4 5 1027.6 1027.6 0.0
26/03:00am 4.1 1.5 4.1 100 0.0 S 7 11 4 6 1027.9 1027.9 0.0
26/02:30am 5.4 3.2 5.4 100 0.0 SSE 6 7 3 4 1028.0 1028.0 0.0
26/02:00am 4.9 2.6 4.9 100 0.0 S 6 9 3 5 1028.1 1028.1 0.0
26/01:30am 4.6 3.4 4.6 100 0.0 CALM 0 0 0 0 1028.0 1028.0 0.0
26/01:00am 4.9 2.4 4.9 100 0.0 S 7 9 4 5 1028.1 1028.1 0.0
26/12:30am 4.7 2.8 4.7 100 0.0 SSW 4 7 2 4 1028.3 1028.3 0.0
26/12:00am 5.4 3.2 5.4 100 0.0 S 6 6 3 3 1028.5 1028.5 0.0
 
Date/Time
EST
Temp
°C
App
Temp
°C
Dew
Point
Rel
Hum
%
Delta-T
°C
Wind Press
QNH
hPa
Press
MSL
hPa
Rain
since 9 am
mm
Dir
 
Spd
km/h
Gust
km/h
Spd
kts
Gust
kts
25/11:30pm 5.0 2.7 5.0 100 0.0 SSW 6 9 3 5 1028.6 1028.6 0.0
25/11:00pm 4.9 2.0 4.9 100 0.0 S 9 13 5 7 1028.7 1028.7 0.0
25/10:30pm 5.6 3.5 5.6 100 0.0 S 6 7 3 4 1028.7 1028.7 0.0
25/10:00pm 5.4 3.6 5.4 100 0.0 S 4 6 2 3 1028.8 1028.8 0.0
25/09:37pm 6.4 4.2 6.4 100 0.0 S 7 9 4 5 1029.0 1029.0 0.0
25/09:30pm 6.0 3.8 6.0 100 0.0 S 7 9 4 5 1028.9 1028.9 0.0
25/09:22pm 5.5 3.3 5.5 100 0.0 S 6 9 3 5 1028.9 1028.9 0.0
25/09:00pm 5.6 2.9 5.6 100 0.0 S 9 11 5 6 1028.7 1028.7 0.0
25/08:30pm 6.0 3.8 6.0 100 0.0 S 7 11 4 6 1028.5 1028.5 0.0
25/08:00pm 6.7 4.6 6.7 100 0.0 S 7 11 4 6 1028.5 1028.5 0.0
25/07:30pm 6.9 3.7 6.9 100 0.0 S 13 13 7 7 1028.5 1028.5 0.0
25/07:00pm 7.3 4.6 7.3 100 0.0 S 11 13 6 7 1028.3 1028.3 0.0
25/06:30pm 7.0 4.2 7.0 100 0.0 S 11 13 6 7 1028.1 1028.1 0.0
25/06:00pm 7.6 5.9 7.6 100 0.0 SSE 6 6 3 3 1028.0 1028.0 0.0
25/05:30pm 8.7 7.1 8.7 100 0.0 SE 7 11 4 6 1027.9 1027.9 0.0
25/05:00pm 10.0 10.1 10.0 100 0.0 CALM 0 0 0 0 1027.9 1027.9 0.0
25/04:30pm 10.6 10.8 10.6 100 0.0 CALM 0 0 0 0 1027.8 1027.8 0.0
25/04:00pm 11.1 10.1 11.1 100 0.0 N 7 9 4 5 1027.9 1027.9 0.0
25/03:30pm 11.5 10.3 11.5 100 0.0 NNW 9 11 5 6 1028.0 1028.0 0.0
25/03:00pm 10.9 9.5 10.9 100 0.0 N 9 11 5 6 1028.0 1028.0 0.0
25/02:30pm 11.0 9.6 11.0 100 0.0 NNE 9 11 5 6 1027.9 1027.9 0.0
25/02:00pm 11.3 9.6 11.3 100 0.0 N 11 15 6 8 1028.0 1028.0 0.0
25/01:30pm 11.2 9.9 11.2 100 0.0 N 9 11 5 6 1028.3 1028.3 0.0
25/01:00pm 11.3 10.6 11.3 100 0.0 N 6 9 3 5 1028.6 1028.6 0.0
25/12:30pm 10.4 10.6 10.4 100 0.0 CALM 0 0 0 0 1029.0 1029.0 0.0
25/12:00pm 8.6 6.2 8.6 100 0.0 SSE 11 15 6 8 1029.5 1029.5 0.0
25/11:30am 7.4 4.7 7.4 100 0.0 S 11 15 6 8 1030.0 1030.0 0.0
25/11:00am 7.6 4.6 7.6 100 0.0 S 13 17 7 9 1030.3 1030.3 0.0
25/10:30am 7.3 3.8 7.3 100 0.0 S 15 19 8 10 1030.4 1030.4 0.0
25/10:00am 6.7 2.7 6.7 100 0.0 S 17 20 9 11 1030.4 1030.4 0.0

Other Formats:

Comma delimited format used in spreadsheet applications
http://www.bom.gov.au/fwo/IDT60801/IDT60801.95960.axf

JavaScript Object Notation format (JSON) in row-major order
http://www.bom.gov.au/fwo/IDT60801/IDT60801.95960.json